EZY46QN EHAM-EGGD
Flight info
| Callsign | EZY46QN |
|---|---|
| Flight time | 0h 55m |
| Altitude | 36000 |
| Route | IDRID L980 LAM L179 ICTAM |
| Aircraft | A320/M-SDE3FGHIRWY/LB1 |
Departure
| Time | 2026-04-30 13:55 |
|---|---|
| Airport | Amsterdam Airport Schiphol (EHAM) |
Arrival
| Time | 2026-04-30 14:51 |
|---|---|
| Airport | Bristol Airport (EGGD) |
| Time | Latitude | Longitude | Altitude | Speed | Heading |
|---|---|---|---|---|---|
| 2026-04-30 13:28 | 52.31027 | 4.75459 | -2 ft | 0 kts | 149° |
| 2026-04-30 13:45 | 52.31029 | 4.75457 | -2 ft | 2 kts | 149° |
| 2026-04-30 13:45 | 52.31050 | 4.75432 | -2 ft | 4 kts | 126° |
| 2026-04-30 13:46 | 52.31059 | 4.75395 | -2 ft | 4 kts | 84° |
| 2026-04-30 13:46 | 52.31056 | 4.75372 | -2 ft | 0 kts | 57° |
| 2026-04-30 13:50 | 52.31114 | 4.75487 | -2 ft | 14 kts | 27° |
| 2026-04-30 13:50 | 52.31209 | 4.75485 | -2 ft | 13 kts | 355° |
| 2026-04-30 13:51 | 52.31298 | 4.75478 | -2 ft | 13 kts | 356° |
| 2026-04-30 13:51 | 52.31412 | 4.75468 | -2 ft | 20 kts | 357° |
| 2026-04-30 13:51 | 52.31500 | 4.75441 | -3 ft | 10 kts | 316° |
| 2026-04-30 13:51 | 52.31508 | 4.75339 | -3 ft | 9 kts | 267° |
| 2026-04-30 13:52 | 52.31504 | 4.75235 | -3 ft | 11 kts | 267° |
| 2026-04-30 13:52 | 52.31500 | 4.75102 | -3 ft | 11 kts | 267° |
| 2026-04-30 13:52 | 52.31496 | 4.74973 | -2 ft | 13 kts | 267° |
| 2026-04-30 13:52 | 52.31490 | 4.74795 | -2 ft | 11 kts | 266° |
| 2026-04-30 13:53 | 52.31504 | 4.74687 | -2 ft | 9 kts | 306° |
| 2026-04-30 13:53 | 52.31551 | 4.74659 | -2 ft | 4 kts | 356° |
| 2026-04-30 13:53 | 52.31563 | 4.74658 | -2 ft | 0 kts | 358° |
| 2026-04-30 13:53 | 52.31584 | 4.74658 | 0 ft | 6 kts | 0° |
| 2026-04-30 13:54 | 52.31650 | 4.74670 | 0 ft | 9 kts | 18° |
| 2026-04-30 13:54 | 52.31673 | 4.74752 | 0 ft | 10 kts | 85° |
| 2026-04-30 13:54 | 52.31680 | 4.75051 | -6 ft | 61 kts | 88° |
| 2026-04-30 13:54 | 52.31712 | 4.76120 | 0 ft | 124 kts | 86° |
| 2026-04-30 13:55 | 52.31754 | 4.77804 | 56 ft | 169 kts | 88° |
| 2026-04-30 13:55 | 52.31830 | 4.79790 | 702 ft | 174 kts | 84° |
| 2026-04-30 13:55 | 52.32240 | 4.81597 | 1643 ft | 173 kts | 54° |
| 2026-04-30 13:55 | 52.33294 | 4.82708 | 2288 ft | 194 kts | 17° |
| 2026-04-30 13:56 | 52.34697 | 4.82538 | 2866 ft | 218 kts | 348° |
| 2026-04-30 13:56 | 52.36198 | 4.81559 | 3334 ft | 244 kts | 339° |
| 2026-04-30 13:56 | 52.37781 | 4.80343 | 4029 ft | 258 kts | 337° |
| 2026-04-30 13:56 | 52.39274 | 4.78636 | 4824 ft | 271 kts | 312° |
| 2026-04-30 13:57 | 52.40545 | 4.76175 | 5367 ft | 293 kts | 311° |
| 2026-04-30 13:57 | 52.41947 | 4.73670 | 6248 ft | 301 kts | 314° |
| 2026-04-30 13:57 | 52.43418 | 4.71209 | 7211 ft | 304 kts | 316° |
| 2026-04-30 13:57 | 52.44891 | 4.68685 | 8168 ft | 308 kts | 309° |
| 2026-04-30 13:58 | 52.46010 | 4.65688 | 9098 ft | 311 kts | 292° |
| 2026-04-30 13:58 | 52.46634 | 4.58705 | 10680 ft | 324 kts | 259° |
| 2026-04-30 13:58 | 52.46015 | 4.55078 | 11017 ft | 340 kts | 240° |
| 2026-04-30 13:59 | 52.44680 | 4.51859 | 11666 ft | 342 kts | 222° |
| 2026-04-30 13:59 | 52.43027 | 4.49025 | 12433 ft | 349 kts | 224° |
| 2026-04-30 13:59 | 52.41504 | 4.45877 | 13170 ft | 358 kts | 232° |
| 2026-04-30 13:59 | 52.40200 | 4.42345 | 13943 ft | 364 kts | 235° |
| 2026-04-30 14:00 | 52.38809 | 4.38854 | 14642 ft | 367 kts | 232° |
| 2026-04-30 14:00 | 52.35794 | 4.32028 | 16045 ft | 373 kts | 230° |
| 2026-04-30 14:00 | 52.34240 | 4.28593 | 16756 ft | 376 kts | 230° |
| 2026-04-30 14:01 | 52.32691 | 4.25129 | 17471 ft | 380 kts | 230° |
| 2026-04-30 14:01 | 52.31137 | 4.21600 | 18190 ft | 383 kts | 231° |
| 2026-04-30 14:01 | 52.29588 | 4.18043 | 18847 ft | 386 kts | 231° |
| 2026-04-30 14:01 | 52.28030 | 4.14447 | 19439 ft | 389 kts | 231° |
| 2026-04-30 14:02 | 52.26462 | 4.10831 | 20037 ft | 392 kts | 231° |
| 2026-04-30 14:02 | 52.24881 | 4.07191 | 20636 ft | 395 kts | 232° |
| 2026-04-30 14:02 | 52.23286 | 4.03516 | 21220 ft | 398 kts | 232° |
| 2026-04-30 14:02 | 52.21698 | 3.99869 | 21788 ft | 401 kts | 232° |
| 2026-04-30 14:03 | 52.20073 | 3.96155 | 22344 ft | 404 kts | 232° |
| 2026-04-30 14:03 | 52.18431 | 3.92415 | 22886 ft | 407 kts | 232° |
| 2026-04-30 14:03 | 52.16778 | 3.88662 | 23482 ft | 409 kts | 232° |
| 2026-04-30 14:03 | 52.15110 | 3.84883 | 24007 ft | 412 kts | 232° |
| 2026-04-30 14:04 | 52.13430 | 3.81075 | 24246 ft | 413 kts | 232° |
| 2026-04-30 14:04 | 52.11753 | 3.77277 | 24302 ft | 413 kts | 232° |
| 2026-04-30 14:04 | 52.10078 | 3.73484 | 24309 ft | 413 kts | 232° |
| 2026-04-30 14:04 | 52.08404 | 3.69695 | 24341 ft | 415 kts | 232° |
| 2026-04-30 14:05 | 52.06711 | 3.65869 | 24813 ft | 417 kts | 232° |
| 2026-04-30 14:05 | 52.05016 | 3.62050 | 25292 ft | 419 kts | 232° |
| 2026-04-30 14:05 | 52.03303 | 3.58203 | 25736 ft | 421 kts | 232° |
| 2026-04-30 14:05 | 52.01574 | 3.54326 | 26185 ft | 423 kts | 232° |
| 2026-04-30 14:06 | 51.99847 | 3.50452 | 26616 ft | 426 kts | 232° |
| 2026-04-30 14:06 | 51.96356 | 3.42632 | 27439 ft | 431 kts | 231° |
| 2026-04-30 14:07 | 51.92840 | 3.34771 | 28323 ft | 434 kts | 231° |
| 2026-04-30 14:07 | 51.91058 | 3.30804 | 28731 ft | 437 kts | 231° |
| 2026-04-30 14:07 | 51.89266 | 3.26832 | 29133 ft | 439 kts | 231° |
| 2026-04-30 14:08 | 51.86004 | 3.18404 | 29923 ft | 447 kts | 244° |
| 2026-04-30 14:08 | 51.84957 | 3.13659 | 30289 ft | 452 kts | 253° |
| 2026-04-30 14:08 | 51.84046 | 3.03520 | 30906 ft | 459 kts | 263° |
| 2026-04-30 14:09 | 51.83717 | 2.98395 | 31206 ft | 460 kts | 262° |
| 2026-04-30 14:09 | 51.83376 | 2.93223 | 31501 ft | 462 kts | 262° |
| 2026-04-30 14:09 | 51.82797 | 2.84594 | 32013 ft | 465 kts | 262° |
| 2026-04-30 14:10 | 51.82448 | 2.79414 | 32441 ft | 463 kts | 262° |
| 2026-04-30 14:10 | 51.82098 | 2.74245 | 32870 ft | 462 kts | 262° |
| 2026-04-30 14:10 | 51.81747 | 2.69083 | 33285 ft | 461 kts | 262° |
| 2026-04-30 14:10 | 51.81282 | 2.62274 | 33848 ft | 460 kts | 261° |
| 2026-04-30 14:11 | 51.81045 | 2.58816 | 34106 ft | 459 kts | 261° |
| 2026-04-30 14:11 | 51.80692 | 2.53695 | 34488 ft | 458 kts | 261° |
| 2026-04-30 14:11 | 51.80334 | 2.48584 | 34845 ft | 457 kts | 261° |
| 2026-04-30 14:11 | 51.79973 | 2.43481 | 35193 ft | 456 kts | 261° |
| 2026-04-30 14:12 | 51.79613 | 2.38408 | 35561 ft | 455 kts | 261° |
| 2026-04-30 14:12 | 51.79252 | 2.33340 | 35929 ft | 453 kts | 261° |
| 2026-04-30 14:12 | 51.78888 | 2.28292 | 36206 ft | 452 kts | 261° |
| 2026-04-30 14:13 | 51.78186 | 2.18364 | 36277 ft | 444 kts | 262° |
| 2026-04-30 14:13 | 51.77606 | 2.08394 | 36274 ft | 443 kts | 263° |
| 2026-04-30 14:14 | 51.77057 | 1.98478 | 36275 ft | 443 kts | 262° |
| 2026-04-30 14:14 | 51.76475 | 1.88650 | 36267 ft | 442 kts | 262° |
| 2026-04-30 14:15 | 51.75864 | 1.78767 | 36264 ft | 442 kts | 262° |
| 2026-04-30 14:15 | 51.75245 | 1.68909 | 36257 ft | 442 kts | 262° |
| 2026-04-30 14:16 | 51.74625 | 1.59046 | 36258 ft | 442 kts | 262° |
| 2026-04-30 14:16 | 51.73995 | 1.49182 | 36254 ft | 442 kts | 261° |
| 2026-04-30 14:17 | 51.73355 | 1.39312 | 36257 ft | 442 kts | 261° |
| 2026-04-30 14:17 | 51.72709 | 1.29455 | 36250 ft | 442 kts | 261° |
| 2026-04-30 14:18 | 51.72059 | 1.19601 | 36250 ft | 442 kts | 261° |
| 2026-04-30 14:18 | 51.71052 | 1.04832 | 36249 ft | 442 kts | 261° |
| 2026-04-30 14:19 | 51.70046 | 0.90046 | 36238 ft | 442 kts | 261° |
| 2026-04-30 14:20 | 51.69361 | 0.80197 | 36232 ft | 443 kts | 261° |
| 2026-04-30 14:20 | 51.68310 | 0.65415 | 36232 ft | 443 kts | 261° |
| 2026-04-30 14:21 | 51.67602 | 0.55608 | 36233 ft | 443 kts | 260° |
| 2026-04-30 14:22 | 51.66520 | 0.40822 | 36242 ft | 443 kts | 260° |
| 2026-04-30 14:22 | 51.65434 | 0.26063 | 36232 ft | 443 kts | 260° |
| 2026-04-30 14:23 | 51.63757 | 0.06258 | 35644 ft | 448 kts | 257° |
| 2026-04-30 14:24 | 51.62657 | -0.03524 | 34686 ft | 442 kts | 255° |
| 2026-04-30 14:24 | 51.62096 | -0.08374 | 34121 ft | 440 kts | 255° |
| 2026-04-30 14:25 | 51.61082 | -0.18004 | 33040 ft | 435 kts | 257° |
| 2026-04-30 14:25 | 51.60317 | -0.27613 | 31953 ft | 430 kts | 258° |
| 2026-04-30 14:26 | 51.59607 | -0.37089 | 30820 ft | 424 kts | 258° |
| 2026-04-30 14:26 | 51.59233 | -0.41793 | 30311 ft | 421 kts | 257° |
| 2026-04-30 14:26 | 51.58461 | -0.51033 | 29286 ft | 413 kts | 257° |
| 2026-04-30 14:27 | 51.58076 | -0.55522 | 28816 ft | 408 kts | 257° |
| 2026-04-30 14:27 | 51.57680 | -0.60068 | 28353 ft | 403 kts | 257° |
| 2026-04-30 14:27 | 51.57296 | -0.64454 | 27914 ft | 399 kts | 257° |
| 2026-04-30 14:28 | 51.56539 | -0.73188 | 27010 ft | 391 kts | 257° |
| 2026-04-30 14:28 | 51.56164 | -0.77498 | 26560 ft | 388 kts | 257° |
| 2026-04-30 14:28 | 51.55791 | -0.81771 | 26128 ft | 385 kts | 257° |
| 2026-04-30 14:28 | 51.55417 | -0.86020 | 25658 ft | 383 kts | 257° |
| 2026-04-30 14:29 | 51.54666 | -0.94437 | 24727 ft | 379 kts | 257° |
| 2026-04-30 14:29 | 51.53918 | -1.02806 | 23793 ft | 378 kts | 256° |
| 2026-04-30 14:30 | 51.52895 | -1.15291 | 22285 ft | 376 kts | 264° |
| 2026-04-30 14:31 | 51.53577 | -1.23652 | 21393 ft | 378 kts | 277° |
| 2026-04-30 14:31 | 51.54564 | -1.31896 | 20508 ft | 374 kts | 277° |
| 2026-04-30 14:31 | 51.55049 | -1.35992 | 20067 ft | 372 kts | 277° |
| 2026-04-30 14:32 | 51.56000 | -1.44113 | 19197 ft | 368 kts | 277° |
| 2026-04-30 14:32 | 51.56468 | -1.48136 | 18771 ft | 367 kts | 276° |
| 2026-04-30 14:32 | 51.56935 | -1.52170 | 18309 ft | 365 kts | 276° |
| 2026-04-30 14:33 | 51.57396 | -1.56172 | 17881 ft | 363 kts | 276° |
| 2026-04-30 14:33 | 51.58309 | -1.64115 | 17015 ft | 359 kts | 277° |
| 2026-04-30 14:33 | 51.58722 | -1.68052 | 16594 ft | 356 kts | 274° |
| 2026-04-30 14:34 | 51.59043 | -1.71984 | 16171 ft | 354 kts | 273° |
| 2026-04-30 14:34 | 51.59314 | -1.75914 | 15758 ft | 353 kts | 272° |
| 2026-04-30 14:34 | 51.59567 | -1.79840 | 15339 ft | 352 kts | 272° |
| 2026-04-30 14:34 | 51.59819 | -1.83739 | 14926 ft | 351 kts | 271° |
| 2026-04-30 14:35 | 51.59177 | -1.91255 | 14204 ft | 334 kts | 244° |
| 2026-04-30 14:35 | 51.58137 | -1.94516 | 13982 ft | 323 kts | 232° |
| 2026-04-30 14:35 | 51.56934 | -1.97544 | 13589 ft | 321 kts | 232° |
| 2026-04-30 14:36 | 51.55737 | -2.00542 | 13036 ft | 316 kts | 232° |
| 2026-04-30 14:36 | 51.54566 | -2.03479 | 12539 ft | 307 kts | 232° |
| 2026-04-30 14:36 | 51.53429 | -2.06336 | 12099 ft | 299 kts | 232° |
| 2026-04-30 14:36 | 51.52444 | -2.09300 | 11836 ft | 304 kts | 244° |
| 2026-04-30 14:37 | 51.51723 | -2.12499 | 11481 ft | 303 kts | 245° |
| 2026-04-30 14:37 | 51.51010 | -2.15675 | 11126 ft | 302 kts | 245° |
| 2026-04-30 14:37 | 51.50291 | -2.18846 | 10764 ft | 301 kts | 245° |
| 2026-04-30 14:37 | 51.49576 | -2.21994 | 10416 ft | 299 kts | 245° |
| 2026-04-30 14:38 | 51.48866 | -2.25119 | 10061 ft | 298 kts | 245° |
| 2026-04-30 14:38 | 51.48156 | -2.28230 | 9693 ft | 296 kts | 245° |
| 2026-04-30 14:38 | 51.47453 | -2.31317 | 9331 ft | 292 kts | 246° |
| 2026-04-30 14:38 | 51.46760 | -2.34362 | 8982 ft | 289 kts | 245° |
| 2026-04-30 14:39 | 51.46071 | -2.37379 | 8642 ft | 287 kts | 245° |
| 2026-04-30 14:39 | 51.45385 | -2.40376 | 8327 ft | 285 kts | 245° |
| 2026-04-30 14:39 | 51.44714 | -2.43311 | 7985 ft | 283 kts | 245° |
| 2026-04-30 14:40 | 51.43352 | -2.49229 | 7312 ft | 280 kts | 245° |
| 2026-04-30 14:40 | 51.42689 | -2.52098 | 6982 ft | 278 kts | 245° |
| 2026-04-30 14:40 | 51.42019 | -2.54999 | 6701 ft | 272 kts | 245° |
| 2026-04-30 14:40 | 51.41384 | -2.57773 | 6573 ft | 260 kts | 244° |
| 2026-04-30 14:41 | 51.40773 | -2.60438 | 6455 ft | 248 kts | 244° |
| 2026-04-30 14:41 | 51.40193 | -2.62951 | 6347 ft | 234 kts | 244° |
| 2026-04-30 14:41 | 51.39644 | -2.65339 | 6245 ft | 223 kts | 244° |
| 2026-04-30 14:41 | 51.39119 | -2.67616 | 6151 ft | 214 kts | 243° |
| 2026-04-30 14:42 | 51.38611 | -2.69810 | 6060 ft | 207 kts | 244° |
| 2026-04-30 14:42 | 51.38344 | -2.72070 | 5960 ft | 211 kts | 264° |
| 2026-04-30 14:42 | 51.38563 | -2.74440 | 5729 ft | 219 kts | 280° |
| 2026-04-30 14:42 | 51.38948 | -2.76804 | 5497 ft | 220 kts | 279° |
| 2026-04-30 14:43 | 51.39329 | -2.79165 | 5280 ft | 217 kts | 279° |
| 2026-04-30 14:43 | 51.39699 | -2.81466 | 5021 ft | 210 kts | 279° |
| 2026-04-30 14:43 | 51.40056 | -2.83700 | 4780 ft | 205 kts | 278° |
| 2026-04-30 14:43 | 51.40404 | -2.85887 | 4559 ft | 200 kts | 279° |
| 2026-04-30 14:44 | 51.40744 | -2.88023 | 4356 ft | 195 kts | 278° |
| 2026-04-30 14:44 | 51.41068 | -2.90062 | 4165 ft | 186 kts | 278° |
| 2026-04-30 14:44 | 51.41382 | -2.92024 | 3938 ft | 180 kts | 278° |
| 2026-04-30 14:44 | 51.41698 | -2.94097 | 3745 ft | 197 kts | 276° |
| 2026-04-30 14:45 | 51.41599 | -2.96205 | 3610 ft | 188 kts | 240° |
| 2026-04-30 14:45 | 51.40832 | -2.97753 | 3498 ft | 172 kts | 206° |
| 2026-04-30 14:45 | 51.39767 | -2.98376 | 3419 ft | 158 kts | 178° |
| 2026-04-30 14:45 | 51.38715 | -2.98113 | 3415 ft | 152 kts | 154° |
| 2026-04-30 14:46 | 51.37869 | -2.97123 | 3384 ft | 151 kts | 131° |
| 2026-04-30 14:46 | 51.37404 | -2.95648 | 3281 ft | 152 kts | 108° |
| 2026-04-30 14:46 | 51.37382 | -2.94042 | 3128 ft | 139 kts | 93° |
| 2026-04-30 14:46 | 51.37423 | -2.93046 | 3024 ft | 132 kts | 93° |
| 2026-04-30 14:47 | 51.37500 | -2.91139 | 2810 ft | 127 kts | 92° |
| 2026-04-30 14:47 | 51.37557 | -2.89734 | 2644 ft | 125 kts | 91° |
| 2026-04-30 14:47 | 51.37612 | -2.88347 | 2480 ft | 125 kts | 92° |
| 2026-04-30 14:47 | 51.37668 | -2.86963 | 2312 ft | 124 kts | 92° |
| 2026-04-30 14:48 | 51.37724 | -2.85588 | 2138 ft | 124 kts | 91° |
| 2026-04-30 14:48 | 51.37778 | -2.84226 | 1977 ft | 125 kts | 91° |
| 2026-04-30 14:48 | 51.37834 | -2.82838 | 1810 ft | 122 kts | 92° |
| 2026-04-30 14:48 | 51.37888 | -2.81500 | 1649 ft | 122 kts | 92° |
| 2026-04-30 14:49 | 51.37942 | -2.80123 | 1495 ft | 123 kts | 92° |
| 2026-04-30 14:49 | 51.37997 | -2.78761 | 1326 ft | 122 kts | 92° |
| 2026-04-30 14:49 | 51.38050 | -2.77411 | 1173 ft | 122 kts | 93° |
| 2026-04-30 14:49 | 51.38104 | -2.76044 | 1005 ft | 123 kts | 92° |
| 2026-04-30 14:50 | 51.38218 | -2.73313 | 654 ft | 122 kts | 90° |
| 2026-04-30 14:50 | 51.38249 | -2.72086 | 616 ft | 80 kts | 87° |
| 2026-04-30 14:51 | 51.38281 | -2.71529 | 625 ft | 12 kts | 83° |
| 2026-04-30 14:51 | 51.38327 | -2.71466 | 617 ft | 8 kts | 343° |
| 2026-04-30 14:51 | 51.38410 | -2.71535 | 618 ft | 6 kts | 358° |
| 2026-04-30 14:52 | 51.38439 | -2.71498 | 621 ft | 5 kts | 64° |
| 2026-04-30 14:52 | 51.38450 | -2.71302 | 613 ft | 12 kts | 87° |
| 2026-04-30 14:52 | 51.38455 | -2.71166 | 620 ft | 8 kts | 86° |
| 2026-04-30 14:53 | 51.38504 | -2.71078 | 618 ft | 4 kts | 349° |
| 2026-04-30 14:53 | 51.38533 | -2.71082 | 613 ft | 4 kts | 357° |
| 2026-04-30 14:54 | 51.38542 | -2.71082 | 613 ft | 0 kts | 357° |